Time;durP1;ratioP1;P1;durP2;ratioP2;P2;SDS_P1;SDS_P2;PMS_P1;PMS_P2;Temp;Humidity;BMP_temperature;BMP_pressure;BME280_temperature;BME280_humidity;BME280_pressure;Samples;Min_cycle;Max_cycle;Signal;HPM_P1;HPM_P2
2021/03/10 00:01:47;;;;;;;7.20;4.53;;;17.90;44.50;;;;;;5003503;28;20196;-63
2021/03/10 00:04:12;;;;;;;4.68;3.92;;;17.90;44.50;;;;;;5002641;28;20439;-62
2021/03/10 00:06:38;;;;;;;6.03;4.55;;;17.90;44.60;;;;;;5004255;28;20025;-62
2021/03/10 00:09:03;;;;;;;4.97;4.20;;;17.90;44.70;;;;;;5003717;28;20623;-61
2021/03/10 00:11:29;;;;;;;7.13;5.03;;;17.90;44.80;;;;;;5004300;28;20033;-63
2021/03/10 00:13:54;;;;;;;6.75;4.72;;;17.80;44.70;;;;;;5004644;28;20117;-61
2021/03/10 00:16:20;;;;;;;7.78;4.63;;;17.80;44.80;;;;;;5003533;28;20033;-61
2021/03/10 00:18:45;;;;;;;7.28;4.60;;;17.90;44.90;;;;;;5004165;28;20026;-62
2021/03/10 00:21:11;;;;;;;6.30;4.45;;;17.90;44.90;;;;;;5003261;28;20038;-61
2021/03/10 00:23:36;;;;;;;6.63;4.68;;;17.90;44.90;;;;;;5004524;28;20026;-63
2021/03/10 00:26:02;;;;;;;5.78;4.25;;;17.90;45.00;;;;;;5004536;28;20045;-63
2021/03/10 00:28:28;;;;;;;5.82;4.50;;;17.90;45.00;;;;;;5004186;28;20033;-63
2021/03/10 00:30:54;;;;;;;5.05;4.10;;;17.90;45.00;;;;;;5003940;28;20088;-63
2021/03/10 00:33:19;;;;;;;6.10;4.78;;;17.80;45.00;;;;;;5004437;28;20037;-60
2021/03/10 00:35:45;;;;;;;7.45;4.93;;;17.90;45.10;;;;;;5002717;28;20062;-61
2021/03/10 00:38:10;;;;;;;6.45;5.32;;;17.80;45.00;;;;;;5003975;28;20735;-59
2021/03/10 00:40:36;;;;;;;5.63;4.38;;;17.80;45.10;;;;;;5003806;28;20034;-63
2021/03/10 00:43:01;;;;;;;7.57;4.75;;;17.80;45.20;;;;;;5004427;28;20037;-62
2021/03/10 00:45:27;;;;;;;6.03;4.82;;;17.80;45.30;;;;;;5002634;28;20022;-62
2021/03/10 00:47:58;;;;;;;6.38;4.75;;;17.70;45.30;;;;;;5003849;28;20034;-59
2021/03/10 00:50:24;;;;;;;5.68;4.57;;;17.70;45.40;;;;;;5005261;28;20116;-64
2021/03/10 00:52:49;;;;;;;6.88;5.38;;;17.70;45.30;;;;;;5008574;28;20494;-62
2021/03/10 00:55:15;;;;;;;10.30;6.60;;;17.70;45.40;;;;;;5008354;28;20026;-61
2021/03/10 00:57:41;;;;;;;10.00;7.15;;;17.70;45.40;;;;;;5007853;28;20038;-63
2021/03/10 01:00:07;;;;;;;11.95;8.02;;;17.70;45.60;;;;;;5007814;28;20155;-62
2021/03/10 01:02:32;;;;;;;14.20;8.30;;;17.70;45.70;;;;;;5006877;28;20048;-64
2021/03/10 01:04:58;;;;;;;12.85;7.68;;;17.70;45.80;;;;;;5006159;28;20026;-63
2021/03/10 01:07:23;;;;;;;13.10;8.68;;;17.70;45.90;;;;;;5007664;28;20037;-63
2021/03/10 01:09:49;;;;;;;14.15;8.80;;;17.70;46.00;;;;;;5007383;28;20038;-59
2021/03/10 01:12:14;;;;;;;11.52;8.10;;;17.70;46.10;;;;;;5006441;28;20022;-64
2021/03/10 01:14:40;;;;;;;13.40;8.88;;;17.70;46.20;;;;;;5006072;28;20084;-64
2021/03/10 01:17:05;;;;;;;12.55;8.20;;;17.70;46.20;;;;;;5007640;28;20654;-64
2021/03/10 01:19:31;;;;;;;15.50;9.15;;;17.60;46.30;;;;;;5006895;28;20125;-65
2021/03/10 01:21:56;;;;;;;10.77;7.55;;;17.70;46.40;;;;;;5008318;28;20062;-63
2021/03/10 01:24:22;;;;;;;12.68;7.55;;;17.70;46.40;;;;;;5008031;28;20448;-62
2021/03/10 01:26:47;;;;;;;10.68;7.00;;;17.70;46.30;;;;;;5007692;28;20040;-64
2021/03/10 01:29:13;;;;;;;11.57;7.95;;;17.70;46.30;;;;;;5006709;28;20700;-64
2021/03/10 01:31:38;;;;;;;11.30;8.05;;;17.70;46.30;;;;;;5007338;28;20030;-64
2021/03/10 01:34:04;;;;;;;13.90;8.00;;;17.60;46.20;;;;;;5007558;28;20109;-64
2021/03/10 01:36:29;;;;;;;11.18;7.38;;;17.70;46.20;;;;;;5007630;28;20120;-64
2021/03/10 01:38:55;;;;;;;9.48;6.90;;;17.70;46.10;;;;;;5006907;28;20018;-64
2021/03/10 01:41:20;;;;;;;11.57;7.40;;;17.70;46.00;;;;;;5006308;28;20175;-64
2021/03/10 01:43:46;;;;;;;9.55;6.90;;;17.70;45.90;;;;;;5006860;28;20022;-63
2021/03/10 01:46:11;;;;;;;11.00;7.28;;;17.80;45.90;;;;;;5005918;28;20778;-64
2021/03/10 01:48:37;;;;;;;10.00;6.95;;;17.80;45.80;;;;;;5006898;28;20023;-63
2021/03/10 01:51:05;;;;;;;9.68;6.68;;;17.80;45.70;;;;;;5007073;28;20030;-64
2021/03/10 01:53:32;;;;;;;9.57;7.13;;;17.80;45.70;;;;;;5005437;28;20042;-65
2021/03/10 01:55:57;;;;;;;11.75;7.47;;;17.80;45.60;;;;;;5007455;28;20126;-64
2021/03/10 01:58:23;;;;;;;9.60;6.13;;;17.80;45.60;;;;;;5005194;28;20097;-64
2021/03/10 02:00:48;;;;;;;11.38;7.03;;;17.80;45.60;;;;;;5005061;28;20034;-65
2021/03/10 02:03:14;;;;;;;10.82;7.13;;;17.80;45.60;;;;;;5006710;28;20030;-64
2021/03/10 02:05:39;;;;;;;8.07;5.88;;;17.80;45.50;;;;;;5004499;28;20073;-64
2021/03/10 02:08:23;;;;;;;11.50;7.95;;;17.80;45.50;;;;;;5005175;28;20050;-63
2021/03/10 02:11:11;;;;;;;9.95;7.10;;;17.80;45.50;;;;;;5006384;28;20030;-64
2021/03/10 02:14:14;;;;;;;8.77;6.10;;;17.80;45.60;;;;;;5005189;28;20544;-64
2021/03/10 02:16:54;;;;;;;9.27;6.47;;;17.70;45.40;;;;;;5006303;28;20049;-64
2021/03/10 02:19:51;;;;;;;10.23;6.88;;;17.70;45.50;;;;;;5005033;28;20672;-63
2021/03/10 02:22:27;;;;;;;;;;;17.70;45.40;;;;;;5005462;28;20037;-64
2021/03/10 02:25:02;;;;;;;11.05;6.00;;;17.70;45.40;;;;;;5005376;28;19913;-63
2021/03/10 02:27:44;;;;;;;9.10;6.23;;;17.70;45.40;;;;;;5006132;28;20568;-63
2021/03/10 02:30:32;;;;;;;11.07;6.60;;;17.70;45.40;;;;;;5003196;28;20272;-64
2021/03/10 02:33:11;;;;;;;8.77;6.43;;;17.70;45.50;;;;;;4997122;28;20030;-63
2021/03/10 02:35:44;;;;;;;10.30;6.03;;;17.70;45.50;;;;;;5005727;28;20045;-64
2021/03/10 02:38:10;;;;;;;8.63;5.82;;;17.70;45.50;;;;;;5005015;28;20528;-63
2021/03/10 02:40:38;;;;;;;9.98;5.88;;;17.70;45.60;;;;;;5004177;28;20038;-64
2021/03/10 02:43:03;;;;;;;8.90;5.88;;;17.60;45.50;;;;;;5004980;28;20060;-64
2021/03/10 02:45:28;;;;;;;6.85;5.18;;;17.60;45.50;;;;;;4976511;28;20500;-64
2021/03/10 02:47:57;;;;;;;8.15;5.90;;;17.60;45.60;;;;;;4995894;28;20098;-63
2021/03/10 02:50:22;;;;;;;7.85;5.72;;;17.60;45.50;;;;;;5000065;28;20357;-64
2021/03/10 02:52:48;;;;;;;7.05;5.43;;;17.60;45.50;;;;;;5002455;28;20045;-64
2021/03/10 02:55:14;;;;;;;6.03;5.38;;;17.60;45.60;;;;;;5001058;28;20425;-64
2021/03/10 02:57:39;;;;;;;6.53;5.40;;;17.60;45.60;;;;;;5006398;28;20042;-64
2021/03/10 03:00:11;;;;;;;7.93;5.75;;;17.60;45.60;;;;;;5006052;28;20037;-64
2021/03/10 03:02:40;;;;;;;8.18;5.28;;;17.60;45.60;;;;;;5006850;28;20034;-64
2021/03/10 03:05:06;;;;;;;7.82;5.68;;;17.60;45.60;;;;;;5006530;28;20700;-64
2021/03/10 03:07:32;;;;;;;7.47;5.43;;;17.60;45.50;;;;;;5004745;28;20038;-64
2021/03/10 03:09:59;;;;;;;5.60;4.63;;;17.60;45.60;;;;;;5005905;28;20044;-64
2021/03/10 03:12:25;;;;;;;7.45;5.82;;;17.60;45.60;;;;;;5000531;28;20126;-64
2021/03/10 03:14:50;;;;;;;6.63;5.65;;;17.50;45.60;;;;;;5000018;28;20117;-64
2021/03/10 03:17:16;;;;;;;6.28;5.18;;;17.50;45.70;;;;;;5001695;28;20083;-64
2021/03/10 03:19:41;;;;;;;6.80;4.88;;;17.50;45.80;;;;;;4987636;28;20466;-63
2021/03/10 03:22:07;;;;;;;7.18;5.78;;;17.50;45.80;;;;;;5001218;28;20042;-64
2021/03/10 03:24:33;;;;;;;6.00;5.28;;;17.60;45.60;;;;;;5003543;28;20113;-64
2021/03/10 03:26:58;;;;;;;7.13;5.03;;;17.60;45.30;;;;;;4988534;28;20366;-63
2021/03/10 03:29:25;;;;;;;6.60;5.28;;;17.80;45.20;;;;;;5000011;28;20021;-63
2021/03/10 03:31:50;;;;;;;6.85;5.47;;;17.80;45.10;;;;;;5000399;28;20042;-64
2021/03/10 03:34:16;;;;;;;5.78;5.18;;;17.70;45.10;;;;;;4988393;28;20700;-64
2021/03/10 03:36:41;;;;;;;6.85;4.85;;;17.80;45.10;;;;;;4999727;28;20038;-64
2021/03/10 03:39:07;;;;;;;6.05;5.18;;;17.80;45.00;;;;;;5005510;28;20022;-64
2021/03/10 03:41:32;;;;;;;6.30;5.20;;;17.80;45.00;;;;;;5005176;28;20056;-65
2021/03/10 03:43:59;;;;;;;7.30;4.60;;;17.90;45.10;;;;;;5005319;28;20444;-64
2021/03/10 03:46:25;;;;;;;7.00;5.20;;;17.90;45.00;;;;;;5002899;28;20029;-64
2021/03/10 03:48:51;;;;;;;8.20;5.97;;;17.90;44.90;;;;;;4999250;28;20040;-64
2021/03/10 03:51:29;;;;;;;6.68;5.10;;;18.00;44.80;;;;;;4995227;28;20022;-64
2021/03/10 03:53:55;;;;;;;7.35;6.10;;;18.00;44.70;;;;;;4985013;28;20493;-65
2021/03/10 03:56:20;;;;;;;6.68;5.03;;;18.00;44.70;;;;;;4984770;28;20547;-65
2021/03/10 03:58:46;;;;;;;7.68;4.95;;;18.00;44.70;;;;;;4984676;28;20034;-64
2021/03/10 04:01:11;;;;;;;6.43;4.75;;;18.00;44.70;;;;;;4983386;28;20077;-64
2021/03/10 04:03:37;;;;;;;7.47;4.93;;;18.00;44.70;;;;;;4984779;28;20034;-64
2021/03/10 04:06:03;;;;;;;8.85;5.60;;;18.00;44.60;;;;;;4983284;28;20022;-64
2021/03/10 04:08:28;;;;;;;6.32;5.18;;;18.00;44.70;;;;;;4967499;28;20560;-63
2021/03/10 04:10:54;;;;;;;6.85;5.15;;;18.00;44.70;;;;;;4984859;28;20030;-63
2021/03/10 04:13:19;;;;;;;6.57;5.00;;;18.00;44.70;;;;;;4984724;28;20050;-64
2021/03/10 04:15:44;;;;;;;7.03;5.32;;;17.90;44.70;;;;;;4984394;28;20499;-64
2021/03/10 04:18:10;;;;;;;7.75;5.25;;;18.00;44.70;;;;;;4985095;28;20619;-63
2021/03/10 04:20:35;;;;;;;6.07;4.75;;;17.90;44.70;;;;;;4984037;28;20042;-63
2021/03/10 04:23:01;;;;;;;6.82;4.95;;;17.90;44.70;;;;;;4984951;28;20026;-64
2021/03/10 04:25:26;;;;;;;6.63;5.72;;;17.80;44.80;;;;;;4983729;28;20510;-64
2021/03/10 04:27:52;;;;;;;5.85;5.25;;;17.80;44.80;;;;;;4984706;28;20540;-63
2021/03/10 04:30:18;;;;;;;7.28;5.47;;;17.80;44.90;;;;;;4984226;28;20035;-63
2021/03/10 04:32:43;;;;;;;6.00;5.20;;;17.80;45.00;;;;;;4983634;28;20119;-64
2021/03/10 04:35:09;;;;;;;6.20;4.68;;;17.80;44.90;;;;;;4967080;28;20034;-65
2021/03/10 04:37:35;;;;;;;6.90;5.03;;;17.80;44.90;;;;;;4983023;28;20034;-63
2021/03/10 04:40:01;;;;;;;7.65;5.75;;;17.80;44.90;;;;;;4984724;28;20034;-64
2021/03/10 04:42:26;;;;;;;7.13;5.68;;;17.80;44.90;;;;;;4984821;28;20038;-64
2021/03/10 04:44:52;;;;;;;6.40;5.10;;;17.80;44.90;;;;;;4967076;28;20564;-63
2021/03/10 04:47:17;;;;;;;5.60;5.00;;;17.80;44.90;;;;;;4985007;28;20060;-64
2021/03/10 04:49:43;;;;;;;6.05;5.18;;;17.70;44.90;;;;;;4984423;28;20192;-64
2021/03/10 04:52:08;;;;;;;5.95;5.30;;;17.70;45.00;;;;;;4984540;28;20724;-65
2021/03/10 04:54:34;;;;;;;6.55;5.10;;;17.70;45.00;;;;;;4983275;28;20030;-64
2021/03/10 04:56:59;;;;;;;6.95;5.45;;;17.70;45.00;;;;;;4984732;28;20121;-64
2021/03/10 04:59:25;;;;;;;6.20;4.82;;;17.70;45.00;;;;;;4984389;28;20026;-64
2021/03/10 05:01:50;;;;;;;7.10;5.50;;;17.70;45.00;;;;;;4984537;28;20114;-65
2021/03/10 05:04:16;;;;;;;6.90;5.18;;;17.70;45.00;;;;;;4984433;28;20528;-64
2021/03/10 05:06:41;;;;;;;7.13;5.60;;;17.70;45.00;;;;;;4984498;28;20497;-64
2021/03/10 05:09:07;;;;;;;6.18;5.15;;;17.60;45.00;;;;;;4984418;28;20025;-64
2021/03/10 05:11:33;;;;;;;6.60;5.30;;;17.60;45.00;;;;;;4984358;28;20034;-64
2021/03/10 05:13:59;;;;;;;6.53;4.90;;;17.60;45.00;;;;;;4984471;28;20042;-64
2021/03/10 05:16:24;;;;;;;6.30;4.80;;;17.70;45.10;;;;;;4984219;28;20034;-65
2021/03/10 05:18:50;;;;;;;5.47;4.80;;;17.60;45.10;;;;;;4984019;28;20066;-63
2021/03/10 05:21:15;;;;;;;7.47;5.78;;;17.60;45.20;;;;;;4984440;28;20122;-65
2021/03/10 05:23:43;;;;;;;5.70;5.10;;;17.60;45.20;;;;;;4984278;28;20034;-64
2021/03/10 05:26:10;;;;;;;5.78;4.97;;;17.60;45.20;;;;;;4982503;28;20034;-64
2021/03/10 05:28:35;;;;;;;5.15;4.60;;;17.60;45.30;;;;;;4984271;28;20031;-62
2021/03/10 05:31:01;;;;;;;6.95;4.70;;;17.50;45.20;;;;;;4984582;28;20053;-64
2021/03/10 05:33:26;;;;;;;6.65;4.90;;;17.60;45.30;;;;;;4985224;28;20632;-64
2021/03/10 05:35:52;;;;;;;5.60;5.00;;;17.50;45.40;;;;;;4987589;28;20042;-64
2021/03/10 05:38:17;;;;;;;6.13;4.82;;;17.50;45.40;;;;;;4987738;28;20034;-63
2021/03/10 05:40:43;;;;;;;6.72;5.25;;;17.50;45.40;;;;;;4987502;28;20101;-65
2021/03/10 05:43:08;;;;;;;6.00;4.90;;;17.50;45.40;;;;;;4987712;28;20046;-65
2021/03/10 05:45:34;;;;;;;5.60;4.82;;;17.50;45.50;;;;;;4986283;28;20113;-65
2021/03/10 05:47:59;;;;;;;6.72;4.45;;;17.50;45.60;;;;;;4988033;28;20046;-64
2021/03/10 05:50:25;;;;;;;6.15;4.85;;;17.50;45.70;;;;;;4986029;28;20042;-65
2021/03/10 05:52:50;;;;;;;6.97;4.63;;;17.50;45.80;;;;;;4987765;28;20054;-65
2021/03/10 05:55:16;;;;;;;10.38;5.13;;;17.40;45.80;;;;;;4985602;28;20038;-65
2021/03/10 05:57:42;;;;;;;7.03;5.28;;;17.50;45.90;;;;;;4986200;28;20038;-64
2021/03/10 06:00:12;;;;;;;7.70;4.97;;;17.50;46.00;;;;;;4986724;28;20397;-65
2021/03/10 06:02:38;;;;;;;11.88;5.65;;;17.50;45.90;;;;;;4986430;28;20031;-64
2021/03/10 06:05:04;;;;;;;6.82;4.85;;;17.60;46.00;;;;;;4987204;28;20037;-65
2021/03/10 06:07:30;;;;;;;7.32;4.78;;;17.60;46.00;;;;;;4988301;28;20113;-65
2021/03/10 06:10:04;;;;;;;8.60;5.18;;;17.50;46.00;;;;;;4986116;28;20756;-65
2021/03/10 06:12:56;;;;;;;8.25;5.55;;;17.60;46.00;;;;;;4986948;28;20508;-65
2021/03/10 06:15:21;;;;;;;10.05;6.75;;;17.50;45.90;;;;;;5016968;28;21529;-65
2021/03/10 06:17:48;;;;;;;8.38;6.38;;;17.50;45.90;;;;;;4987993;28;20126;-64
2021/03/10 06:20:24;;;;;;;14.77;7.03;;;17.50;45.90;;;;;;4985892;28;20093;-64
2021/03/10 06:22:49;;;;;;;8.82;6.50;;;17.50;46.00;;;;;;4987102;28;20042;-66
2021/03/10 06:25:15;;;;;;;7.30;6.13;;;17.40;45.90;;;;;;4986767;28;20061;-66
2021/03/10 06:27:56;;;;;;;11.52;6.30;;;17.40;46.10;;;;;;4985408;28;20054;-65
2021/03/10 06:30:43;;;;;;;7.57;5.90;;;17.40;46.40;;;;;;5000422;28;20045;-65
2021/03/10 06:33:09;;;;;;;9.10;5.93;;;17.40;46.50;;;;;;5007032;28;20037;-63
2021/03/10 06:35:35;;;;;;;8.95;5.70;;;17.40;46.60;;;;;;5005582;28;20042;-65
2021/03/10 06:38:14;;;;;;;8.18;5.97;;;17.40;46.60;;;;;;5007369;28;20057;-65
2021/03/10 06:40:53;;;;;;;8.02;6.03;;;17.50;46.60;;;;;;4999711;28;20038;-65
2021/03/10 06:43:19;;;;;;;9.35;6.15;;;17.40;46.60;;;;;;5007133;28;20025;-65
2021/03/10 06:45:44;;;;;;;8.88;5.80;;;17.40;46.60;;;;;;4987001;28;20033;-65
2021/03/10 06:48:20;;;;;;;10.50;6.53;;;17.40;46.60;;;;;;5006242;28;20030;-65
2021/03/10 06:50:46;;;;;;;9.88;6.47;;;17.40;46.60;;;;;;5004977;28;20047;-64
2021/03/10 06:53:12;;;;;;;8.07;6.35;;;17.50;46.50;;;;;;4997652;28;20039;-64
2021/03/10 06:55:44;;;;;;;10.23;5.93;;;17.50;46.50;;;;;;4995916;28;20026;-64
2021/03/10 06:58:10;;;;;;;9.60;6.03;;;17.50;46.40;;;;;;5005457;28;20037;-64
2021/03/10 07:00:36;;;;;;;10.63;6.18;;;17.50;46.40;;;;;;5006010;28;20042;-65
2021/03/10 07:03:01;;;;;;;10.55;6.13;;;17.50;46.50;;;;;;5007105;28;20740;-65
2021/03/10 07:05:28;;;;;;;8.93;6.30;;;17.50;46.40;;;;;;5006073;28;20036;-65
2021/03/10 07:07:54;;;;;;;9.90;6.28;;;17.50;46.40;;;;;;5006258;28;20034;-62
2021/03/10 07:10:21;;;;;;;10.30;6.90;;;17.50;46.30;;;;;;5001958;28;20041;-65
2021/03/10 07:12:47;;;;;;;11.90;6.05;;;17.50;46.20;;;;;;5004683;28;20093;-65
2021/03/10 07:15:14;;;;;;;12.60;7.32;;;17.50;46.20;;;;;;4988001;28;20049;-67
2021/03/10 07:17:39;;;;;;;8.88;6.47;;;17.50;46.10;;;;;;5006170;28;20441;-66
2021/03/10 07:20:05;;;;;;;9.27;5.65;;;17.50;46.10;;;;;;5003054;28;20080;-63
2021/03/10 07:22:32;;;;;;;7.82;6.30;;;17.50;46.40;;;;;;5007164;28;20501;-64
2021/03/10 07:25:06;;;;;;;12.52;6.88;;;17.50;46.40;;;;;;5006358;28;20386;-63
2021/03/10 07:27:58;;;;;;;9.65;6.10;;;17.40;46.50;;;;;;5000438;28;20034;-64
2021/03/10 07:30:37;;;;;;;9.35;6.82;;;17.40;46.70;;;;;;4967756;28;21063;-63
2021/03/10 07:33:16;;;;;;;12.20;6.68;;;17.30;46.90;;;;;;5006712;28;20417;-64
2021/03/10 07:35:51;;;;;;;12.85;6.35;;;17.30;47.00;;;;;;5007357;28;20033;-63
2021/03/10 07:38:17;;;;;;;7.57;6.43;;;17.30;47.00;;;;;;5006193;28;20030;-64
2021/03/10 07:41:01;;;;;;;8.27;5.80;;;17.50;46.70;;;;;;5005402;28;20041;-63
2021/03/10 07:43:39;;;;;;;8.68;5.68;;;17.60;46.40;;;;;;5005989;28;20049;-65
2021/03/10 07:46:23;;;;;;;8.70;6.28;;;17.70;46.20;;;;;;4996543;28;20038;-64
2021/03/10 07:48:49;;;;;;;7.78;5.50;;;17.80;46.10;;;;;;5005973;28;20496;-63
2021/03/10 07:51:27;;;;;;;7.85;5.53;;;17.80;46.00;;;;;;5005554;28;20033;-64
2021/03/10 07:53:53;;;;;;;11.07;5.75;;;17.80;45.80;;;;;;5004306;28;20038;-63
2021/03/10 07:56:47;;;;;;;8.10;5.40;;;17.90;45.80;;;;;;4970716;28;20084;-64
2021/03/10 07:59:17;;;;;;;8.02;6.18;;;18.00;45.70;;;;;;4983750;28;21438;-65
2021/03/10 08:01:43;;;;;;;6.88;5.53;;;18.00;45.50;;;;;;5005401;28;20328;-65
2021/03/10 08:04:11;;;;;;;11.05;5.78;;;18.00;45.60;;;;;;5005654;28;20553;-65
2021/03/10 08:06:49;;;;;;;11.00;6.05;;;18.00;45.60;;;;;;5005442;28;20492;-65
2021/03/10 08:09:17;;;;;;;10.50;5.93;;;18.00;45.70;;;;;;5003917;28;20136;-65
2021/03/10 08:11:43;;;;;;;6.65;5.10;;;18.00;45.70;;;;;;5005083;28;20124;-65
2021/03/10 08:14:10;;;;;;;6.07;5.07;;;17.90;45.70;;;;;;5003607;28;20052;-65
2021/03/10 08:16:46;;;;;;;7.65;4.63;;;17.90;45.70;;;;;;5004850;28;20087;-64
2021/03/10 08:19:12;;;;;;;7.85;5.03;;;17.90;45.80;;;;;;5004837;28;20033;-65
2021/03/10 08:21:46;;;;;;;9.38;5.80;;;17.90;45.80;;;;;;4974120;28;20046;-62
2021/03/10 08:24:12;;;;;;;7.50;5.07;;;17.90;45.80;;;;;;4984088;28;20045;-61
2021/03/10 08:26:39;;;;;;;8.40;5.60;;;17.90;45.80;;;;;;4982155;28;20460;-62
2021/03/10 08:29:04;;;;;;;7.85;4.72;;;17.80;45.80;;;;;;4982364;28;20054;-64
2021/03/10 08:31:30;;;;;;;6.97;6.05;;;17.80;45.80;;;;;;4984083;28;20057;-59
2021/03/10 08:33:55;;;;;;;7.90;6.00;;;17.80;45.80;;;;;;4983583;28;20034;-62
2021/03/10 08:36:31;;;;;;;8.18;6.07;;;17.90;45.80;;;;;;4982992;28;20031;-60
2021/03/10 08:38:57;;;;;;;9.85;6.55;;;17.80;45.70;;;;;;4983781;28;20040;-63
2021/03/10 08:41:22;;;;;;;12.85;6.88;;;17.80;45.80;;;;;;4983636;28;20114;-60
2021/03/10 08:43:48;;;;;;;10.07;6.13;;;17.80;45.80;;;;;;4984268;28;20117;-60
2021/03/10 08:46:13;;;;;;;11.15;6.18;;;17.80;45.80;;;;;;4983888;28;20034;-60
2021/03/10 08:48:39;;;;;;;10.25;5.95;;;17.80;45.80;;;;;;4982035;28;20536;-63
2021/03/10 08:51:04;;;;;;;7.57;6.18;;;17.70;45.80;;;;;;4983383;28;20084;-64
2021/03/10 08:53:30;;;;;;;8.85;5.90;;;17.70;45.70;;;;;;4984405;28;20093;-59
2021/03/10 08:56:06;;;;;;;10.30;6.43;;;17.70;45.80;;;;;;4965838;28;20115;-60
2021/03/10 08:58:31;;;;;;;10.55;6.90;;;17.70;45.80;;;;;;4985040;28;20034;-65
2021/03/10 09:00:57;;;;;;;8.20;6.30;;;17.70;45.70;;;;;;4983305;28;20430;-64
2021/03/10 09:03:22;;;;;;;12.27;6.15;;;17.70;45.70;;;;;;4983062;28;20031;-64
2021/03/10 09:05:51;;;;;;;13.45;7.60;;;17.70;45.70;;;;;;4981887;28;20030;-62
2021/03/10 09:08:23;;;;;;;12.00;6.82;;;17.70;45.70;;;;;;4982617;28;20038;-62
2021/03/10 09:10:53;;;;;;;9.40;6.53;;;17.70;45.70;;;;;;4986633;28;20037;-64
2021/03/10 09:13:19;;;;;;;10.82;6.32;;;17.60;45.50;;;;;;4988467;28;20661;-62
2021/03/10 09:15:45;;;;;;;10.57;6.72;;;17.60;46.00;;;;;;4969680;28;20096;-63
2021/03/10 09:18:10;;;;;;;14.95;6.65;;;17.60;46.20;;;;;;4986429;28;20100;-65
2021/03/10 09:20:40;;;;;;;9.18;6.43;;;17.60;46.20;;;;;;4987925;28;20042;-62
2021/03/10 09:23:06;;;;;;;9.40;6.28;;;17.60;46.10;;;;;;4988285;28;20030;-64
2021/03/10 09:25:33;;;;;;;8.95;6.03;;;17.60;46.20;;;;;;4986974;28;20515;-57
2021/03/10 09:28:05;;;;;;;7.45;5.60;;;17.60;46.20;;;;;;4986242;28;20042;-61
2021/03/10 09:30:31;;;;;;;9.40;5.80;;;17.60;46.20;;;;;;5007143;28;20042;-61
2021/03/10 09:32:57;;;;;;;12.00;6.40;;;17.60;46.20;;;;;;5007567;28;20037;-63
2021/03/10 09:35:32;;;;;;;10.85;6.03;;;17.60;46.20;;;;;;5007703;28;20034;-60
2021/03/10 09:38:00;;;;;;;11.23;6.60;;;17.60;46.20;;;;;;5005759;28;20030;-59
2021/03/10 09:40:56;;;;;;;9.55;6.65;;;17.60;46.20;;;;;;5006611;28;20432;-60
2021/03/10 09:43:22;;;;;;;9.45;6.70;;;17.60;46.20;;;;;;5006312;28;20041;-61
2021/03/10 09:45:49;;;;;;;9.52;6.00;;;17.60;46.10;;;;;;5006994;28;20026;-60
2021/03/10 09:48:18;;;;;;;11.13;5.70;;;17.60;46.10;;;;;;5006766;28;20484;-61
2021/03/10 09:50:45;;;;;;;9.30;6.72;;;17.60;46.10;;;;;;5004691;28;20069;-62
2021/03/10 09:53:15;;;;;;;14.38;7.13;;;17.60;46.00;;;;;;4997789;28;20040;-61
2021/03/10 09:55:40;;;;;;;15.45;7.68;;;17.60;45.90;;;;;;5007401;28;20034;-61
2021/03/10 09:58:07;;;;;;;19.67;9.25;;;17.60;45.80;;;;;;5006813;28;20040;-60
2021/03/10 10:00:32;;;;;;;23.42;8.43;;;17.60;45.80;;;;;;5006436;28;20136;-62
2021/03/10 10:02:58;;;;;;;19.17;9.30;;;17.60;45.80;;;;;;5007288;28;20129;-64
2021/03/10 10:05:25;;;;;;;21.80;9.38;;;17.60;45.80;;;;;;5006922;28;20057;-63
2021/03/10 10:07:51;;;;;;;22.10;9.88;;;17.60;45.90;;;;;;5005039;28;20030;-60
2021/03/10 10:10:17;;;;;;;26.48;10.52;;;17.60;46.00;;;;;;5006382;28;20754;-64
2021/03/10 10:12:47;;;;;;;25.38;9.77;;;17.60;46.10;;;;;;5006086;28;20038;-56
2021/03/10 10:15:13;;;;;;;18.63;8.05;;;17.60;46.70;;;;;;5006597;28;20061;-59
2021/03/10 10:17:43;;;;;;;20.42;8.57;;;17.50;46.70;;;;;;5005730;28;20141;-63
2021/03/10 10:20:09;;;;;;;20.25;8.45;;;17.50;46.70;;;;;;5006028;28;20038;-62
2021/03/10 10:22:35;;;;;;;19.35;8.18;;;17.50;46.70;;;;;;5006586;28;20042;-64
2021/03/10 10:25:02;;;;;;;12.48;7.47;;;17.50;46.70;;;;;;5005946;28;20504;-62
2021/03/10 10:27:28;;;;;;;14.73;8.02;;;17.50;46.70;;;;;;5006074;28;20128;-62
2021/03/10 10:29:53;;;;;;;14.05;6.60;;;17.50;46.70;;;;;;5005205;28;20042;-61
2021/03/10 10:32:19;;;;;;;15.90;7.72;;;17.50;46.70;;;;;;4998085;28;20551;-61
2021/03/10 10:34:44;;;;;;;19.00;7.25;;;17.50;46.70;;;;;;5004270;28;20041;-62
2021/03/10 10:37:09;;;;;;;11.57;7.22;;;17.50;46.70;;;;;;5006117;28;20024;-59
2021/03/10 10:39:35;;;;;;;14.13;7.03;;;17.50;46.70;;;;;;5006811;28;20034;-62
2021/03/10 10:42:01;;;;;;;14.38;6.70;;;17.50;46.90;;;;;;5006456;28;20392;-63
2021/03/10 10:44:26;;;;;;;12.07;5.78;;;17.40;47.00;;;;;;5006141;28;20409;-63
2021/03/10 10:46:52;;;;;;;11.85;6.18;;;17.40;47.10;;;;;;5004470;28;20026;-62
2021/03/10 10:49:17;;;;;;;12.00;6.80;;;17.40;47.10;;;;;;5007445;28;20109;-63
2021/03/10 10:51:43;;;;;;;13.55;6.70;;;17.40;47.10;;;;;;5008782;28;20045;-60
2021/03/10 10:54:11;;;;;;;11.98;6.90;;;17.50;46.90;;;;;;5009639;28;20041;-62
2021/03/10 10:56:36;;;;;;;10.65;5.47;;;17.50;46.90;;;;;;5005862;28;20432;-64
2021/03/10 10:59:02;;;;;;;13.38;6.45;;;17.60;47.20;;;;;;5005838;28;20038;-59
2021/03/10 11:01:27;;;;;;;13.35;6.05;;;17.60;47.30;;;;;;5005561;28;20029;-60
2021/03/10 11:03:53;;;;;;;9.18;5.15;;;17.70;47.50;;;;;;5005400;28;20030;-60
2021/03/10 11:06:18;;;;;;;12.05;5.60;;;17.70;47.40;;;;;;5005348;28;20520;-61
2021/03/10 11:08:44;;;;;;;12.13;5.30;;;17.70;47.10;;;;;;5005352;28;20030;-61
2021/03/10 11:11:09;;;;;;;10.18;4.95;;;17.80;47.30;;;;;;5004989;28;20110;-62
2021/03/10 11:13:35;;;;;;;6.53;4.03;;;17.80;47.20;;;;;;5005992;28;20496;-59
2021/03/10 11:16:00;;;;;;;7.63;5.00;;;17.80;47.10;;;;;;5005665;28;20080;-55
2021/03/10 11:18:26;;;;;;;8.18;4.70;;;17.70;46.90;;;;;;4987457;28;20067;-60
2021/03/10 11:20:51;;;;;;;11.00;5.05;;;17.80;47.10;;;;;;5005000;28;20592;-59
2021/03/10 11:23:17;;;;;;;10.50;5.68;;;17.70;46.70;;;;;;5005408;28;20124;-61
2021/03/10 11:25:42;;;;;;;10.25;4.75;;;17.70;46.60;;;;;;5004107;28;20041;-60
2021/03/10 11:28:08;;;;;;;16.85;4.75;;;17.70;46.70;;;;;;5005981;28;20511;-59
2021/03/10 11:30:33;;;;;;;7.82;4.60;;;17.70;46.80;;;;;;5007704;28;20034;-60
2021/03/10 11:32:59;;;;;;;6.88;4.60;;;17.70;46.80;;;;;;5007084;28;20030;-60
2021/03/10 11:35:24;;;;;;;7.80;4.68;;;17.70;46.70;;;;;;5004926;28;20030;-60
2021/03/10 11:37:50;;;;;;;6.75;4.80;;;17.70;46.80;;;;;;5005277;28;20037;-57
2021/03/10 11:40:15;;;;;;;8.00;4.03;;;17.70;46.60;;;;;;5004835;28;20053;-57
2021/03/10 11:42:41;;;;;;;7.63;4.72;;;17.70;46.70;;;;;;5005017;28;20091;-62
2021/03/10 11:45:07;;;;;;;6.55;4.38;;;17.70;46.60;;;;;;5005110;28;20115;-63
2021/03/10 11:47:33;;;;;;;8.07;4.88;;;17.60;46.70;;;;;;5005118;28;20034;-56
2021/03/10 11:49:58;;;;;;;6.75;3.78;;;17.60;46.70;;;;;;5004321;28;20022;-60
2021/03/10 11:52:24;;;;;;;5.68;3.97;;;17.60;46.60;;;;;;5004620;28;20520;-62
2021/03/10 11:54:49;;;;;;;6.57;4.35;;;17.60;46.70;;;;;;5004990;28;20116;-62
2021/03/10 11:57:15;;;;;;;8.27;4.00;;;17.60;46.70;;;;;;5004670;28;20584;-59
2021/03/10 11:59:40;;;;;;;6.45;3.67;;;17.60;46.70;;;;;;5004769;28;20060;-54
2021/03/10 12:02:07;;;;;;;4.93;3.72;;;17.60;46.70;;;;;;5004846;28;20022;-59
2021/03/10 12:04:33;;;;;;;5.63;3.33;;;17.50;46.70;;;;;;5003689;28;20121;-61
2021/03/10 12:06:58;;;;;;;5.57;4.32;;;17.50;46.70;;;;;;5004375;28;20640;-59
2021/03/10 12:09:24;;;;;;;4.15;3.15;;;17.50;46.80;;;;;;5004857;28;20026;-60
2021/03/10 12:11:49;;;;;;;5.03;3.75;;;17.50;46.80;;;;;;5004030;28;20068;-59
2021/03/10 12:14:15;;;;;;;5.45;3.67;;;17.50;46.80;;;;;;5005072;28;20105;-60
2021/03/10 12:16:40;;;;;;;5.68;3.80;;;17.50;46.80;;;;;;5005140;28;20036;-58
2021/03/10 12:19:06;;;;;;;5.18;4.07;;;17.50;46.80;;;;;;5005564;28;20488;-61
2021/03/10 12:21:31;;;;;;;5.70;3.50;;;17.50;46.70;;;;;;5002843;28;20042;-59
2021/03/10 12:23:58;;;;;;;6.93;3.38;;;17.50;46.70;;;;;;5004954;28;21499;-63
2021/03/10 12:26:24;;;;;;;5.07;3.20;;;17.50;46.70;;;;;;5004642;28;20029;-63
2021/03/10 12:28:49;;;;;;;7.68;3.25;;;17.50;46.70;;;;;;5004983;28;20156;-62
2021/03/10 12:31:15;;;;;;;3.90;2.85;;;17.50;46.80;;;;;;5004782;28;20037;-59
2021/03/10 12:33:40;;;;;;;4.95;3.47;;;17.50;46.80;;;;;;5004668;28;20038;-63
2021/03/10 12:36:06;;;;;;;5.00;3.22;;;17.50;47.50;;;;;;5004967;28;20030;-62
2021/03/10 12:38:31;;;;;;;3.95;3.38;;;17.50;46.80;;;;;;5004735;28;20045;-63
2021/03/10 12:40:57;;;;;;;4.30;3.00;;;17.50;46.90;;;;;;5003256;28;20030;-61
2021/03/10 12:43:22;;;;;;;5.50;3.25;;;17.40;46.80;;;;;;5005361;28;20037;-62
2021/03/10 12:45:48;;;;;;;5.18;2.70;;;17.40;46.90;;;;;;5008557;28;20026;-61